Keyes Creek (350) Station Data

Red Flag Warning: No
Fire Weather Zone: 250
SDGE Region: North East
Lat/Lon: 33.313/-117.086

Observations

Time Wind Speed/Gust Temp(F) RH Fuel Moist Fuel Temp(F) Dewpt(F) Tmax(F) Tmin(F) Accum Precip 10-min Precip SL Press(mb)
3/29 8:00am 359 2 G 3 57° 46% - - 37° 59.1° 44.8° - - -
3/29 7:50am 19 1 G 3 55° 50% - - 37° 55.8° 44.8° - - -
3/29 7:40am 352 1 G 3 53° 49% - - 35° 54.7° 44.8° - - -
3/29 7:30am 7 1 G 2 53° 50% - - 35° 54.3° 44.8° - - -
3/29 7:20am 352 1 G 3 53° 48% - - 34° 53.5° 44.8° - - -
3/29 7:10am 237 0 G 2 50° 48% - - 32° 52.7° 44.8° - - -
3/29 7:00am 342 2 G 3 49° 52% - - 32° 52.7° 44.8° - - -
3/29 6:50am 343 1 G 3 50° 51% - - 33° 52.7° 44.8° - - -
3/29 6:40am 1 1 G 4 52° 50% - - 34° 52.7° 44.8° - - -
3/29 6:30am 356 2 G 4 51° 51% - - 34° 52.7° 44.8° - - -
3/29 6:20am 349 2 G 4 50° 53% - - 34° 52.7° 44.8° - - -
3/29 6:10am 344 1 G 4 50° 53% - - 34° 52.7° 44.8° - - -
3/29 6:00am 338 2 G 5 51° 52% - - 34° 52.7° 44.8° - - -
3/29 5:50am 357 4 G 6 50° 53% - - 34° 52.7° 44.8° - - -
3/29 5:40am 342 1 G 3 51° 51% - - 34° 52.7° 44.8° - - -
3/29 5:30am 352 1 G 3 51° 52% - - 34° 52.7° 44.8° - - -
3/29 5:20am 348 1 G 3 50° 54% - - 34° 52.7° 44.8° - - -
3/29 5:10am 302 1 G 3 51° 56% - - 36° 52.6° 44.8° - - -
3/29 5:00am 341 2 G 5 50° 59% - - 36° 52.6° 44.8° - - -
3/29 4:50am 351 2 G 3 48° 65% - - 37° 52.6° 44.8° - - -
3/29 4:40am 337 1 G 3 47° 70% - - 37° 52.6° 44.8° - - -
3/29 4:30am 352 2 G 3 45° 74% - - 37° 52.6° 44.8° - - -
3/29 4:20am 0 2 G 3 45° 72% - - 37° 52.6° 44.8° - - -
3/29 4:10am 347 1 G 3 47° 70% - - 37° 52.6° 46° - - -
3/29 4:00am 2 1 G 3 47° 70% - - 37° 52.6° 46.2° - - -
3/29 3:50am 358 1 G 3 47° 70% - - 37° 52.6° 46.2° - - -
3/29 3:40am 357 2 G 3 47° 69% - - 37° 52.6° 46.2° - - -
3/29 3:30am 350 1 G 2 47° 68% - - 37° 52.6° 46.6° - - -
3/29 3:20am 317 0 G 1 48° 66% - - 37° 52.6° 46.6° - - -
3/29 3:10am 345 1 G 5 48° 63% - - 36° 52.6° 46.6° - - -
3/29 3:00am 332 1 G 3 50° 57% - - 36° 52.6° 46.6° - - -
3/29 2:50am 298 1 G 2 51° 56% - - 36° 52.6° 46.6° - - -
3/29 2:40am 312 1 G 4 51° 57% - - 37° 52.6° 46.6° - - -
3/29 2:30am 311 1 G 3 52° 57% - - 37° 52.4° 46.6° - - -
3/29 2:20am 330 1 G 2 48° 67% - - 38° 51.5° 46.6° - - -
3/29 2:10am 336 2 G 4 48° 72% - - 39° 51.5° 46.6° - - -
3/29 2:00am 347 1 G 2 48° 71% - - 39° 51.5° 46.6° - - -
3/29 1:50am 335 1 G 3 48° 71% - - 39° 51.5° 46.6° - - -
3/29 1:40am 0 2 G 5 48° 72% - - 39° 51.5° 46.6° - - -
3/29 1:30am 321 2 G 4 48° 71% - - 39° 51.5° 46.6° - - -
3/29 1:20am 358 3 G 5 48° 72% - - 39° 51.5° 46.6° - - -
3/29 1:10am 357 2 G 3 48° 70% - - 39° 51.5° 46.6° - - -
3/29 1:00am 333 2 G 3 48° 69% - - 39° 51.5° 46.6° - - -
3/29 12:50am 359 1 G 4 49° 68% - - 39° 51.5° 46.6° - - -
3/29 12:40am 345 1 G 3 51° 63% - - 39° 51.5° 46.6° - - -
3/29 12:30am 330 1 G 3 49° 65% - - 38° 50.4° 46.6° - - -
3/29 12:20am 354 3 G 4 48° 68% - - 38° 48.8° 46.6° - - -
3/29 12:10am 359 2 G 3 48° 67% - - 38° 48.8° 46.7° - - -
3/29 12:00am 354 3 G 4 48° 68% - - 37° 73.6° 42° - - -
3/28 11:50pm 354 2 G 4 49° 64% - - 37° 73.6° 42° - - -
3/28 11:40pm 354 3 G 5 48° 67% - - 37° 73.6° 42° - - -
3/28 11:30pm 347 2 G 4 48° 68% - - 38° 73.6° 42° - - -
3/28 11:20pm 345 2 G 4 47° 70% - - 38° 73.6° 42° - - -
3/28 11:10pm 354 1 G 3 48° 68% - - 38° 73.6° 42° - - -
3/28 11:00pm 358 2 G 3 48° 65% - - 37° 73.6° 42° - - -
3/28 10:50pm 357 2 G 3 48° 66% - - 37° 73.6° 42° - - -
3/28 10:40pm 1 2 G 3 48° 66% - - 37° 73.6° 42° - - -
3/28 10:30pm 355 1 G 3 49° 63% - - 37° 73.6° 42° - - -
3/28 10:20pm 349 1 G 3 49° 62% - - 36° 73.6° 42° - - -
3/28 10:10pm 2 3 G 4 48° 63% - - 36° 73.6° 42° - - -
3/28 10:00pm 358 2 G 3 49° 62% - - 36° 73.6° 42° - - -
3/28 9:50pm 350 1 G 3 49° 61% - - 37° 73.6° 42° - - -
3/28 9:40pm 0 2 G 3 49° 62% - - 37° 73.6° 42° - - -
3/28 9:30pm 353 2 G 4 50° 62% - - 37° 73.6° 42° - - -
3/28 9:20pm 358 2 G 3 49° 62% - - 37° 73.6° 42° - - -
3/28 9:10pm 357 2 G 3 50° 61% - - 37° 73.6° 42° - - -
3/28 9:00pm 356 2 G 3 50° 60% - - 37° 73.6° 42° - - -
3/28 8:50pm 355 1 G 3 51° 58% - - 37° 73.6° 42° - - -
3/28 8:40pm 355 2 G 3 51° 57% - - 36° 73.6° 42° - - -
3/28 8:30pm 356 1 G 2 52° 56% - - 37° 73.6° 42° - - -
3/28 8:20pm 352 2 G 2 52° 55% - - 36° 73.6° 42° - - -
3/28 8:10pm 358 2 G 3 52° 57% - - 37° 73.6° 42° - - -
3/28 8:00pm 358 1 G 3 54° 52% - - 37° 73.6° 42° - - -
3/28 7:50pm 353 2 G 4 53° 55% - - 37° 73.6° 42° - - -
3/28 7:40pm 355 2 G 3 54° 52% - - 37° 73.6° 42° - - -
3/28 7:30pm 346 1 G 3 55° 53% - - 38° 73.6° 42° - - -
3/28 7:20pm 350 1 G 3 56° 51% - - 38° 73.6° 42° - - -
3/28 7:10pm 357 2 G 3 57° 51% - - 39° 73.6° 42° - - -
3/28 7:00pm 354 0 G 1 58° 47% - - 39° 73.6° 42° - - -
3/28 6:50pm 8 0 G 1 60° 44% - - 38° 73.6° 42° - - -
3/28 6:40pm 225 1 G 2 61° 42% - - 38° 73.6° 42° - - -
3/28 6:30pm 214 2 G 3 62° 40% - - 37° 73.6° 42° - - -
3/28 6:20pm 200 2 G 4 62° 41% - - 38° 73.6° 42° - - -
3/28 6:10pm 190 3 G 6 63° 39% - - 38° 73.6° 42° - - -
3/28 6:00pm 202 3 G 7 65° 36% - - 38° 73.6° 42° - - -
3/28 5:50pm 211 1 G 4 67° 33% - - 37° 73.6° 42° - - -
3/28 5:40pm 273 1 G 3 67° 32% - - 36° 73.6° 42° - - -
3/28 5:30pm 265 1 G 6 66° 33% - - 36° 73.6° 42° - - -
3/28 5:20pm 227 2 G 6 66° 35% - - 38° 73.6° 42° - - -
3/28 5:10pm 262 2 G 6 67° 35% - - 38° 73.6° 42° - - -
3/28 5:00pm 240 2 G 6 68° 37% - - 40° 73.6° 42° - - -
3/28 4:50pm 212 2 G 6 68° 33% - - 38° 73.6° 42° - - -
3/28 4:40pm 265 2 G 7 68° 32% - - 37° 73.6° 42° - - -
3/28 4:30pm 262 3 G 7 69° 32% - - 37° 73.6° 42° - - -
3/28 4:20pm 238 3 G 8 70° 30% - - 37° 73.6° 42° - - -
3/28 4:10pm 228 2 G 7 70° 31% - - 38° 73.6° 42° - - -
3/28 4:00pm 209 2 G 6 71° 32% - - 40° 73.6° 42° - - -
3/28 3:50pm 238 2 G 9 71° 33% - - 40° 73.6° 42° - - -
3/28 3:40pm 214 3 G 9 71° 32% - - 40° 73.6° 42° - - -
3/28 3:30pm 229 2 G 7 72° 32% - - 41° 73.6° 42° - - -
3/28 3:20pm 227 3 G 7 72° 32% - - 40° 73.6° 42° - - -
3/28 3:10pm 256 3 G 7 72° 30% - - 39° 73.6° 42° - - -
3/28 3:00pm 227 3 G 7 72° 29% - - 38° 73.6° 42° - - -
3/28 2:50pm 218 3 G 7 72° 30% - - 39° 73.6° 42° - - -
3/28 2:40pm 226 3 G 9 73° 30% - - 40° 73.6° 42° - - -
3/28 2:30pm 260 2 G 7 73° 28% - - 37° 73.6° 42° - - -
3/28 2:20pm 255 3 G 9 72° 26% - - 35° 73.6° 42° - - -
3/28 2:10pm 277 3 G 8 73° 27% - - 37° 73.6° 42° - - -
3/28 2:00pm 281 2 G 6 72° 25% - - 35° 73.2° 42° - - -
3/28 1:50pm 249 3 G 7 72° 22% - - 32° 73.2° 42° - - -
3/28 1:40pm 226 3 G 7 72° 23% - - 32° 73.2° 42° - - -
3/28 1:30pm 345 3 G 6 72° 23% - - 32° 73.2° 42° - - -
3/28 1:20pm 4 3 G 9 72° 20% - - 29° 73.2° 42° - - -
3/28 1:10pm 270 2 G 6 72° 18% - - 26° 73.2° 42° - - -
3/28 1:00pm 286 2 G 6 71° 17% - - 24° 71.6° 42° - - -
3/28 12:50pm 6 4 G 8 71° 18% - - 25° 71.4° 42° - - -
3/28 12:40pm 19 3 G 6 70° 18% - - 25° 71.1° 42° - - -
3/28 12:30pm 290 3 G 6 70° 19% - - 25° 71.1° 42° - - -
3/28 12:20pm 150 2 G 5 70° 20% - - 27° 71.1° 42° - - -
3/28 12:10pm 276 2 G 6 70° 20% - - 26° 70.1° 42° - - -
3/28 12:00pm 239 3 G 9 70° 21% - - 28° 70.1° 42° - - -
3/28 11:50am 309 2 G 5 69° 22% - - 29° 69.7° 42° - - -
3/28 11:40am 40 2 G 6 69° 23% - - 29° 69.4° 42° - - -
3/28 11:30am 54 2 G 5 68° 24% - - 30° 68.9° 42° - - -
3/28 11:20am 0 5 G 9 67° 24% - - 29° 67.2° 42° - - -
3/28 11:10am 338 3 G 8 66° 26% - - 31° 67° 42° - - -
3/28 11:00am 4 4 G 9 65° 26% - - 30° 66° 42° - - -
3/28 10:50am 12 5 G 8 65° 30% - - 33° 65.5° 42° - - -
3/28 10:40am 7 6 G 10 64° 30% - - 33° 64.8° 42° - - -
3/28 10:30am 4 6 G 13 64° 31% - - 33° 64.6° 42° - - -
3/28 10:20am 6 7 G 11 63° 33% - - 34° 63.6° 42° - - -
3/28 10:10am 11 7 G 12 62° 36% - - 35° 62.8° 42° - - -
3/28 10:00am 6 7 G 12 62° 36% - - 35° 62.3° 42° - - -
3/28 9:50am 3 7 G 14 61° 37% - - 35° 62° 42° - - -
3/28 9:40am 355 6 G 9 61° 39% - - 36° 61.2° 42° - - -
3/28 9:30am 9 3 G 9 61° 42% - - 38° 61.2° 42° - - -
3/28 9:20am 102 1 G 3 61° 50% - - 42° 61.2° 42° - - -
3/28 9:10am 154 1 G 3 58° 58% - - 43° 60° 42° - - -
3/28 9:00am 173 2 G 5 58° 56% - - 43° 59.1° 42° - - -
3/28 8:50am 175 1 G 3 55° 62% - - 43° 57° 42° - - -
3/28 8:40am 156 2 G 3 55° 63% - - 43° 55.8° 42° - - -
3/28 8:30am 149 0 G 1 54° 66% - - 43° 55.6° 42° - - -
3/28 8:20am 158 1 G 3 53° 73% - - 44° 53.4° 42° - - -
3/28 8:10am 146 1 G 2 53° 75% - - 45° 53.2° 42° - - -
3/28 8:00am 15 1 G 2 51° 75% - - 44° 52.6° 42° - - -
3/28 7:50am 4 1 G 3 49° 83% - - 44° 50.5° 42° - - -
3/28 7:40am 24 2 G 3 48° 83% - - 43° 48.4° 42° - - -
3/28 7:30am 357 3 G 5 46° 94% - - 44° 48.4° 42° - - -
3/28 7:20am 354 1 G 2 43° 100% - - 43° 48.4° 42° - - -
3/28 7:10am 358 1 G 3 42° 100% - - 42° 48.4° 42° - - -
3/28 7:00am 353 1 G 2 43° 100% - - 43° 48.4° 42.1° - - -
3/28 6:50am 322 1 G 2 44° 100% - - 44° 48.4° 42.1° - - -
3/28 6:40am 320 2 G 5 43° 100% - - 43° 48.4° 42.1° - - -
3/28 6:30am 199 2 G 6 44° 100% - - 44° 48.4° 42.1° - - -
3/28 6:20am 328 4 G 6 44° 100% - - 44° 48.4° 42.1° - - -
3/28 6:10am 155 2 G 4 44° 100% - - 44° 48.4° 42.1° - - -
3/28 6:00am 342 2 G 4 44° 100% - - 44° 48.4° 42.1° - - -